Time;durP1;ratioP1;P1;durP2;ratioP2;P2;SDS_P1;SDS_P2;PMS_P1;PMS_P2;Temp;Humidity;BMP_temperature;BMP_pressure;BME280_temperature;BME280_humidity;BME280_pressure;Samples;Min_cycle;Max_cycle;Signal;HPM_P1;HPM_P2
2022/10/20 00:00:25;;;;;;;6.70;4.85;;;9.00;99.90;;;;;;5118422;27;20039;-79
2022/10/20 00:02:51;;;;;;;6.53;4.85;;;8.10;99.90;;;;;;5107878;27;20043;-79
2022/10/20 00:05:16;;;;;;;7.30;5.40;;;8.10;99.90;;;;;;5133818;27;20049;-79
2022/10/20 00:07:42;;;;;;;10.68;4.65;;;8.10;99.90;;;;;;5117534;27;20049;-79
2022/10/20 00:10:08;;;;;;;11.32;5.70;;;8.60;99.90;;;;;;5106005;27;20051;-79
2022/10/20 00:12:34;;;;;;;9.50;5.15;;;8.10;99.90;;;;;;5135929;27;20038;-79
2022/10/20 00:15:00;;;;;;;9.27;5.38;;;8.00;99.90;;;;;;5135564;27;20384;-79
2022/10/20 00:17:25;;;;;;;15.70;5.68;;;8.00;99.90;;;;;;5117585;27;20027;-79
2022/10/20 00:19:51;;;;;;;8.85;4.72;;;8.40;99.90;;;;;;5103967;27;20039;-79
2022/10/20 00:22:17;;;;;;;9.10;4.88;;;7.90;99.90;;;;;;5132969;27;20042;-79
2022/10/20 00:24:42;;;;;;;9.20;5.20;;;7.90;99.90;;;;;;5117729;27;20113;-78
2022/10/20 00:27:08;;;;;;;7.68;5.10;;;7.90;99.90;;;;;;5147507;27;20063;-79
2022/10/20 00:29:34;;;;;;;12.02;5.30;;;7.90;99.90;;;;;;5124671;27;20496;-78
2022/10/20 00:32:00;;;;;;;6.93;4.97;;;7.90;99.90;;;;;;5115968;27;20039;-79
2022/10/20 00:34:25;;;;;;;12.93;5.43;;;7.80;99.90;;;;;;5114744;27;21385;-78
2022/10/20 00:36:51;;;;;;;6.70;5.18;;;7.80;99.90;;;;;;5129450;27;20494;-79
2022/10/20 00:39:17;;;;;;;8.77;5.28;;;7.80;99.90;;;;;;5135214;27;20038;-79
2022/10/20 00:41:42;;;;;;;8.40;4.57;;;7.80;99.90;;;;;;5127158;27;20031;-78
2022/10/20 00:44:46;;;;;;;8.95;5.63;;;7.80;99.90;;;;;;5136831;27;20052;-79
2022/10/20 00:47:16;;;;;;;10.27;5.20;;;7.80;99.90;;;;;;5132315;27;20491;-78
2022/10/20 00:49:42;;;;;;;9.77;5.22;;;7.80;99.90;;;;;;5145018;27;20589;-79
2022/10/20 00:52:08;;;;;;;6.53;5.22;;;7.80;99.90;;;;;;5128992;27;20038;-79
2022/10/20 00:54:35;;;;;;;8.68;5.05;;;8.60;99.90;;;;;;5135141;27;20120;-78
2022/10/20 00:57:01;;;;;;;7.65;5.10;;;7.70;99.90;;;;;;5127891;27;20054;-79
2022/10/20 00:59:32;;;;;;;9.02;4.95;;;7.70;99.90;;;;;;5116247;27;20078;-78
2022/10/20 01:02:00;;;;;;;8.55;5.28;;;7.70;99.90;;;;;;5134510;27;20566;-79
2022/10/20 01:04:29;;;;;;;6.65;4.53;;;7.70;99.90;;;;;;5117880;27;20099;-79
2022/10/20 01:06:56;;;;;;;11.35;5.32;;;7.80;99.90;;;;;;5150343;27;20088;-78
2022/10/20 01:09:22;;;;;;;8.95;4.85;;;7.80;99.90;;;;;;5133634;27;20038;-78
2022/10/20 01:12:14;;;;;;;9.50;5.05;;;7.60;99.90;;;;;;5102914;27;20539;-79
2022/10/20 01:15:06;;;;;;;9.75;4.95;;;7.60;99.90;;;;;;5131912;27;20129;-79
2022/10/20 01:18:02;;;;;;;8.43;4.53;;;7.60;99.90;;;;;;5122549;27;20066;-78
2022/10/20 01:20:46;;;;;;;11.68;5.22;;;7.60;99.90;;;;;;5123553;27;20397;-78
2022/10/20 01:23:50;;;;;;;9.02;4.82;;;7.60;99.90;;;;;;5146399;27;20043;-79
2022/10/20 01:26:21;;;;;;;8.25;5.53;;;7.60;99.90;;;;;;5127210;27;20067;-78
2022/10/20 01:28:55;;;;;;;12.93;5.05;;;7.50;99.90;;;;;;5132977;27;20129;-79
2022/10/20 01:31:38;;;;;;;7.35;4.97;;;7.50;99.90;;;;;;5123451;27;20038;-78
2022/10/20 01:34:37;;;;;;;10.27;5.65;;;7.60;99.90;;;;;;5130425;27;20108;-79
2022/10/20 01:37:24;;;;;;;8.20;4.88;;;7.60;99.90;;;;;;5131217;27;20387;-79
2022/10/20 01:39:53;;;;;;;8.43;4.72;;;7.50;99.90;;;;;;5152349;27;20034;-79
2022/10/20 01:42:23;;;;;;;8.07;4.72;;;7.70;99.90;;;;;;5147243;27;20043;-79
2022/10/20 01:44:52;;;;;;;9.77;4.80;;;7.50;99.90;;;;;;5133890;27;20043;-79
2022/10/20 01:47:19;;;;;;;8.20;4.72;;;7.50;99.90;;;;;;5133057;27;20034;-79
2022/10/20 01:49:47;;;;;;;11.77;5.05;;;7.50;99.90;;;;;;5102042;27;20042;-80
2022/10/20 01:52:13;;;;;;;9.35;5.10;;;7.50;99.90;;;;;;5125824;27;20031;-80
2022/10/20 01:54:39;;;;;;;7.78;5.20;;;7.50;99.90;;;;;;5115166;27;20546;-79
2022/10/20 01:57:18;;;;;;;11.27;5.30;;;7.40;99.90;;;;;;5135545;27;20439;-79
2022/10/20 02:00:01;;;;;;;5.70;4.45;;;7.50;99.90;;;;;;5129423;27;20087;-79
2022/10/20 02:02:33;;;;;;;7.43;5.13;;;7.40;99.90;;;;;;5122473;27;20443;-79
2022/10/20 02:05:36;;;;;;;8.10;4.80;;;7.40;99.90;;;;;;5134325;27;20038;-79
2022/10/20 02:08:26;;;;;;;8.82;5.72;;;7.40;99.90;;;;;;5146677;27;20069;-79
2022/10/20 02:10:56;;;;;;;7.35;4.82;;;7.40;99.90;;;;;;5128756;27;20088;-79
2022/10/20 02:13:23;;;;;;;9.40;5.80;;;7.80;99.90;;;;;;5130003;27;20094;-79
2022/10/20 02:15:55;;;;;;;10.73;5.28;;;8.20;99.90;;;;;;5111981;27;20054;-79
2022/10/20 02:18:29;;;;;;;6.95;5.10;;;7.40;99.90;;;;;;5132991;27;20118;-79
2022/10/20 02:20:57;;;;;;;7.82;4.88;;;7.40;99.90;;;;;;5148043;27;20069;-79
2022/10/20 02:23:23;;;;;;;9.00;5.05;;;8.10;99.90;;;;;;5129621;27;20155;-79
2022/10/20 02:25:51;;;;;;;10.23;5.00;;;7.30;99.90;;;;;;5130508;27;20125;-79
2022/10/20 02:28:20;;;;;;;9.65;4.90;;;7.30;99.90;;;;;;5124373;27;20031;-79
2022/10/20 02:30:46;;;;;;;8.23;5.03;;;7.50;99.90;;;;;;5128112;27;20041;-79
2022/10/20 02:33:13;;;;;;;7.60;4.70;;;7.30;99.90;;;;;;5116487;27;20035;-79
2022/10/20 02:35:47;;;;;;;9.57;5.10;;;7.30;99.90;;;;;;5116158;27;20046;-79
2022/10/20 02:38:12;;;;;;;9.40;5.18;;;7.30;99.90;;;;;;5119011;27;20035;-79
2022/10/20 02:40:38;;;;;;;10.25;5.20;;;7.30;99.90;;;;;;5116216;27;20514;-79
2022/10/20 02:43:04;;;;;;;8.07;4.70;;;7.30;99.90;;;;;;5115327;27;20086;-79
2022/10/20 02:45:29;;;;;;;8.20;5.28;;;7.30;99.90;;;;;;5116490;27;20043;-79
2022/10/20 02:47:55;;;;;;;6.72;4.97;;;7.30;99.90;;;;;;5112719;27;20075;-79
2022/10/20 02:50:21;;;;;;;9.27;4.95;;;7.30;99.90;;;;;;5129758;27;20169;-79
2022/10/20 02:52:46;;;;;;;9.13;4.82;;;7.20;99.90;;;;;;5133804;27;20042;-79
2022/10/20 02:55:12;;;;;;;9.65;4.88;;;7.30;99.90;;;;;;5125681;27;20039;-79
2022/10/20 02:57:38;;;;;;;13.30;5.50;;;7.20;99.90;;;;;;5134130;27;20046;-79
2022/10/20 03:00:05;;;;;;;8.85;4.75;;;7.20;99.90;;;;;;5139571;27;20031;-79
2022/10/20 03:02:31;;;;;;;7.97;4.80;;;7.20;99.90;;;;;;5139305;27;20060;-79
2022/10/20 03:04:56;;;;;;;10.70;5.18;;;7.20;99.90;;;;;;5114971;27;20035;-79
2022/10/20 03:07:22;;;;;;;7.07;5.50;;;7.20;99.90;;;;;;5100705;27;20046;-79
2022/10/20 03:09:48;;;;;;;8.05;5.03;;;7.20;99.90;;;;;;5113864;27;20434;-79
2022/10/20 03:12:13;;;;;;;9.50;4.90;;;7.20;99.90;;;;;;5151419;27;20031;-79
2022/10/20 03:14:41;;;;;;;9.70;5.13;;;7.50;99.90;;;;;;5116936;27;20039;-79
2022/10/20 03:17:07;;;;;;;8.20;5.00;;;7.20;99.90;;;;;;5132421;27;20058;-79
2022/10/20 03:19:33;;;;;;;9.43;5.30;;;7.10;99.90;;;;;;5134243;27;20187;-79
2022/10/20 03:21:59;;;;;;;10.23;5.40;;;7.20;99.90;;;;;;5106326;27;20126;-79
2022/10/20 03:24:24;;;;;;;7.22;4.80;;;7.10;99.90;;;;;;5151685;27;20402;-78
2022/10/20 03:26:50;;;;;;;9.07;5.15;;;7.20;99.90;;;;;;5114281;27;20039;-79
2022/10/20 03:29:16;;;;;;;6.63;4.70;;;7.60;99.90;;;;;;5145231;27;20035;-79
2022/10/20 03:31:42;;;;;;;7.95;5.15;;;7.10;99.90;;;;;;5116933;27;20039;-78
2022/10/20 03:34:07;;;;;;;10.02;5.50;;;7.10;99.90;;;;;;5125929;27;20043;-78
2022/10/20 03:36:33;;;;;;;8.50;5.22;;;7.20;99.90;;;;;;5123902;27;20559;-79
2022/10/20 03:38:59;;;;;;;10.65;5.22;;;7.10;99.90;;;;;;5095465;27;20391;-78
2022/10/20 03:41:24;;;;;;;10.07;5.47;;;7.10;99.90;;;;;;5110062;27;20432;-78
2022/10/20 03:43:50;;;;;;;8.52;5.40;;;7.20;99.90;;;;;;5140152;27;20066;-78
2022/10/20 03:46:15;;;;;;;10.02;5.55;;;7.70;99.90;;;;;;5111481;27;20035;-78
2022/10/20 03:48:41;;;;;;;11.23;5.60;;;7.20;99.90;;;;;;5122518;27;20126;-79
2022/10/20 03:51:10;;;;;;;8.43;5.32;;;7.20;99.90;;;;;;5134603;27;20031;-79
2022/10/20 03:53:36;;;;;;;12.60;5.40;;;7.30;99.90;;;;;;5138349;27;20037;-79
2022/10/20 03:56:06;;;;;;;11.63;5.30;;;7.20;99.90;;;;;;5136522;27;20482;-79
2022/10/20 03:58:32;;;;;;;11.25;5.60;;;7.20;99.90;;;;;;5132568;27;20043;-79
2022/10/20 04:00:58;;;;;;;9.90;6.30;;;7.70;99.90;;;;;;5111027;27;20532;-79
2022/10/20 04:03:23;;;;;;;9.10;5.63;;;7.20;99.90;;;;;;5118757;27;20039;-79
2022/10/20 04:05:49;;;;;;;10.00;6.45;;;7.20;99.90;;;;;;5148244;27;20030;-79
2022/10/20 04:08:15;;;;;;;8.73;5.93;;;7.20;99.90;;;;;;5133570;27;20079;-79
2022/10/20 04:10:41;;;;;;;8.35;5.68;;;7.80;99.90;;;;;;5135800;27;20039;-79
2022/10/20 04:13:06;;;;;;;7.53;5.40;;;7.20;99.90;;;;;;5119317;27;20466;-79
2022/10/20 04:15:32;;;;;;;9.13;6.50;;;7.20;99.90;;;;;;5135079;27;20030;-79
2022/10/20 04:17:58;;;;;;;11.10;6.32;;;7.20;99.90;;;;;;5117277;27;20550;-79
2022/10/20 04:20:23;;;;;;;9.35;6.43;;;7.20;99.90;;;;;;5133242;27;20034;-79
2022/10/20 04:22:49;;;;;;;9.23;6.75;;;7.20;99.90;;;;;;5119890;27;20129;-78
2022/10/20 04:25:15;;;;;;;12.65;6.55;;;7.30;99.90;;;;;;5131004;27;20066;-79
2022/10/20 04:27:41;;;;;;;9.45;6.10;;;7.20;99.90;;;;;;5115629;27;20106;-79
2022/10/20 04:30:08;;;;;;;10.95;6.47;;;7.20;99.90;;;;;;5148949;27;20031;-79
2022/10/20 04:32:33;;;;;;;8.07;6.35;;;7.30;99.90;;;;;;5126830;27;20039;-79
2022/10/20 04:34:59;;;;;;;8.82;6.07;;;7.50;99.90;;;;;;5119638;27;20043;-78
2022/10/20 04:37:25;;;;;;;8.60;6.13;;;7.20;99.90;;;;;;5130381;27;20470;-79
2022/10/20 04:39:51;;;;;;;11.00;6.53;;;7.20;99.90;;;;;;5118700;27;20053;-79
2022/10/20 04:42:17;;;;;;;9.85;6.50;;;7.20;99.90;;;;;;5113784;27;20039;-79
2022/10/20 04:44:43;;;;;;;11.13;7.32;;;7.10;99.90;;;;;;5112459;27;20043;-79
2022/10/20 04:47:09;;;;;;;11.27;7.47;;;7.10;99.90;;;;;;5128471;27;20092;-79
2022/10/20 04:49:35;;;;;;;11.23;7.38;;;7.30;99.90;;;;;;5148827;27;20070;-79
2022/10/20 04:52:01;;;;;;;13.38;7.82;;;7.10;99.90;;;;;;5119528;27;20066;-79
2022/10/20 04:54:27;;;;;;;11.35;8.00;;;7.20;99.90;;;;;;5148975;27;20087;-79
2022/10/20 04:56:53;;;;;;;11.07;7.47;;;7.20;99.90;;;;;;5151122;27;20400;-78
2022/10/20 04:59:19;;;;;;;12.00;8.10;;;7.10;99.90;;;;;;5117117;27;20042;-78
2022/10/20 05:01:44;;;;;;;10.30;8.43;;;7.50;99.90;;;;;;5140275;27;20475;-79
2022/10/20 05:04:10;;;;;;;10.60;8.05;;;7.10;99.90;;;;;;5130322;27;20159;-79
2022/10/20 05:06:36;;;;;;;12.13;8.13;;;7.10;99.90;;;;;;5131590;27;20047;-79
2022/10/20 05:09:05;;;;;;;14.00;8.63;;;7.10;99.90;;;;;;5151646;27;20103;-79
2022/10/20 05:11:34;;;;;;;13.85;9.13;;;7.10;99.90;;;;;;5125788;27;20039;-79
2022/10/20 05:14:00;;;;;;;11.32;9.35;;;7.10;99.90;;;;;;5126329;27;20057;-79
2022/10/20 05:16:26;;;;;;;17.15;9.10;;;7.10;99.90;;;;;;5130642;27;20039;-79
2022/10/20 05:18:53;;;;;;;11.60;8.88;;;7.10;99.90;;;;;;5119146;27;20035;-79
2022/10/20 05:21:25;;;;;;;13.88;9.57;;;7.20;99.90;;;;;;5129320;27;20082;-78
2022/10/20 05:24:02;;;;;;;13.45;9.52;;;7.10;99.90;;;;;;5146994;27;20049;-79
2022/10/20 05:26:33;;;;;;;11.13;8.85;;;7.10;99.90;;;;;;5152730;27;20031;-79
2022/10/20 05:28:59;;;;;;;12.95;9.70;;;7.10;99.90;;;;;;5151081;27;20126;-78
2022/10/20 05:31:25;;;;;;;10.80;8.75;;;7.10;99.90;;;;;;5152618;27;20398;-79
2022/10/20 05:33:53;;;;;;;12.68;9.45;;;7.10;99.90;;;;;;5128723;27;20050;-78
2022/10/20 05:36:22;;;;;;;12.30;9.23;;;7.10;99.90;;;;;;5143986;27;20525;-79
2022/10/20 05:38:50;;;;;;;15.93;9.90;;;7.10;99.90;;;;;;5147953;27;20067;-79
2022/10/20 05:41:19;;;;;;;14.02;10.68;;;7.20;99.90;;;;;;5147814;27;20383;-79
2022/10/20 05:43:52;;;;;;;15.38;10.18;;;7.10;99.90;;;;;;5139212;27;20475;-79
2022/10/20 05:46:19;;;;;;;13.85;10.45;;;7.10;99.90;;;;;;5126808;27;20043;-79
2022/10/20 05:48:45;;;;;;;12.05;10.07;;;7.10;99.90;;;;;;5124515;27;20038;-78
2022/10/20 05:51:17;;;;;;;15.68;10.52;;;7.10;99.90;;;;;;5131314;27;20074;-79
2022/10/20 05:53:44;;;;;;;13.05;9.65;;;7.10;99.90;;;;;;5149005;27;20120;-79
2022/10/20 05:56:14;;;;;;;14.95;10.15;;;7.10;99.90;;;;;;5130725;27;20034;-80
2022/10/20 05:58:41;;;;;;;18.13;11.30;;;7.30;99.90;;;;;;5118356;27;20027;-80
2022/10/20 06:01:17;;;;;;;12.65;10.50;;;7.10;99.90;;;;;;5125692;27;20035;-80
2022/10/20 06:03:49;;;;;;;13.80;10.35;;;7.10;99.90;;;;;;5141943;27;20421;-80
2022/10/20 06:06:15;;;;;;;13.63;10.68;;;7.10;99.90;;;;;;5133342;27;20026;-79
2022/10/20 06:08:41;;;;;;;13.68;10.73;;;7.20;99.90;;;;;;5150003;27;20059;-78
2022/10/20 06:11:10;;;;;;;16.00;11.30;;;7.30;99.90;;;;;;5114994;27;20053;-78
2022/10/20 06:13:35;;;;;;;12.63;10.30;;;7.10;99.90;;;;;;5148589;27;20126;-78
2022/10/20 06:16:06;;;;;;;16.60;10.95;;;8.10;99.90;;;;;;5126414;27;21897;-78
2022/10/20 06:18:33;;;;;;;14.32;11.07;;;7.10;99.90;;;;;;5148868;27;20536;-78
2022/10/20 06:21:04;;;;;;;15.88;11.02;;;7.10;99.90;;;;;;5137799;27;20047;-78
2022/10/20 06:23:30;;;;;;;17.23;11.48;;;7.10;99.90;;;;;;5145661;27;20070;-78
2022/10/20 06:26:01;;;;;;;16.85;11.85;;;7.10;99.90;;;;;;5127678;27;20080;-79
2022/10/20 06:28:32;;;;;;;15.35;11.32;;;7.10;99.90;;;;;;5120889;27;20047;-78
2022/10/20 06:30:59;;;;;;;15.20;11.63;;;7.10;99.90;;;;;;5128616;27;20063;-80
2022/10/20 06:33:28;;;;;;;14.70;11.15;;;7.60;99.90;;;;;;5114857;27;20066;-79
2022/10/20 06:35:59;;;;;;;15.77;11.57;;;7.20;99.90;;;;;;5150656;27;20537;-80
2022/10/20 06:38:25;;;;;;;14.88;11.57;;;7.20;99.90;;;;;;5150130;27;20474;-79
2022/10/20 06:40:51;;;;;;;14.35;11.60;;;7.20;99.90;;;;;;5133090;27;20053;-79
2022/10/20 06:43:17;;;;;;;18.65;11.75;;;7.20;99.90;;;;;;5122123;27;20038;-79
2022/10/20 06:45:42;;;;;;;19.30;12.27;;;7.40;99.90;;;;;;5143760;27;20479;-79
2022/10/20 06:48:08;;;;;;;22.63;11.88;;;7.30;99.90;;;;;;5134196;27;20065;-79
2022/10/20 06:50:34;;;;;;;16.38;11.93;;;7.30;99.90;;;;;;5150078;27;20092;-79
2022/10/20 06:53:00;;;;;;;17.92;11.50;;;7.40;99.90;;;;;;5147694;27;20039;-78
2022/10/20 06:55:25;;;;;;;17.98;11.32;;;8.00;99.90;;;;;;5118075;27;20038;-79
2022/10/20 06:57:51;;;;;;;16.33;11.63;;;7.30;99.90;;;;;;5133215;27;20042;-79
2022/10/20 07:00:17;;;;;;;15.70;11.05;;;7.30;99.90;;;;;;5114039;27;20057;-80
2022/10/20 07:02:42;;;;;;;15.98;11.88;;;7.30;99.90;;;;;;5148970;27;20494;-78
2022/10/20 07:05:08;;;;;;;16.65;10.32;;;7.40;99.90;;;;;;5128180;27;20035;-79
2022/10/20 07:07:33;;;;;;;18.33;10.90;;;7.40;99.90;;;;;;5150295;27;20112;-81
2022/10/20 07:09:59;;;;;;;19.13;12.02;;;7.40;99.90;;;;;;5126418;27;20487;-79
2022/10/20 07:12:25;;;;;;;24.30;11.43;;;7.40;99.90;;;;;;5128542;27;20111;-78
2022/10/20 07:14:50;;;;;;;14.73;11.85;;;7.50;99.90;;;;;;5114081;27;20046;-79
2022/10/20 07:17:16;;;;;;;20.00;11.63;;;6.90;99.90;;;;;;5115408;27;20039;-79
2022/10/20 07:19:42;;;;;;;19.13;11.30;;;7.50;99.90;;;;;;5098749;27;20518;-80
2022/10/20 07:22:07;;;;;;;19.13;11.02;;;7.50;99.90;;;;;;5112076;27;20035;-79
2022/10/20 07:24:33;;;;;;;17.40;11.60;;;7.70;99.90;;;;;;5121111;27;20098;-80
2022/10/20 07:26:59;;;;;;;15.98;11.27;;;7.50;99.90;;;;;;5135297;27;20039;-80
2022/10/20 07:29:24;;;;;;;15.60;11.85;;;7.50;99.90;;;;;;5119916;27;20130;-80
2022/10/20 07:31:50;;;;;;;16.55;12.02;;;7.60;99.90;;;;;;5117884;27;20035;-80
2022/10/20 07:34:18;;;;;;;14.57;11.80;;;8.20;99.90;;;;;;5149447;27;20065;-80
2022/10/20 07:36:44;;;;;;;14.75;12.00;;;7.60;99.90;;;;;;5128590;27;20065;-80
2022/10/20 07:39:12;;;;;;;14.88;11.80;;;7.70;99.90;;;;;;5153652;27;20095;-80
2022/10/20 07:41:38;;;;;;;12.98;11.55;;;7.70;99.90;;;;;;5150964;27;20054;-78
2022/10/20 07:44:05;;;;;;;13.80;11.93;;;7.70;99.90;;;;;;5125172;27;20047;-78
2022/10/20 07:46:30;;;;;;;14.48;12.02;;;7.70;99.90;;;;;;5130266;27;20102;-78
2022/10/20 07:48:56;;;;;;;14.23;12.30;;;7.80;99.90;;;;;;5129270;27;20035;-78
2022/10/20 07:51:25;;;;;;;15.23;11.80;;;7.80;99.90;;;;;;5132249;27;20027;-78
2022/10/20 07:53:52;;;;;;;15.00;11.70;;;7.80;99.90;;;;;;5131788;27;20050;-80
2022/10/20 07:56:19;;;;;;;17.75;12.02;;;7.90;99.90;;;;;;5149307;27;20046;-79
2022/10/20 07:58:45;;;;;;;12.88;10.98;;;7.90;99.90;;;;;;5150756;27;20046;-79
2022/10/20 08:01:11;;;;;;;15.57;11.80;;;8.50;99.90;;;;;;5134933;27;20160;-78
2022/10/20 08:03:36;;;;;;;13.48;11.45;;;8.00;99.90;;;;;;5124773;27;20034;-80
2022/10/20 08:06:03;;;;;;;14.60;11.77;;;8.10;99.90;;;;;;5135649;27;20030;-78
2022/10/20 08:08:28;;;;;;;13.27;11.10;;;8.10;99.90;;;;;;5132478;27;20516;-78
2022/10/20 08:10:56;;;;;;;17.60;11.57;;;8.10;99.90;;;;;;5109241;27;20121;-78
2022/10/20 08:13:23;;;;;;;13.10;11.70;;;8.20;99.90;;;;;;5126148;27;20038;-78
2022/10/20 08:15:49;;;;;;;15.70;10.68;;;9.20;99.90;;;;;;5116959;27;20582;-78
2022/10/20 08:18:14;;;;;;;12.73;11.15;;;8.30;99.90;;;;;;5118082;27;20042;-77
2022/10/20 08:20:40;;;;;;;16.67;11.30;;;8.40;99.90;;;;;;5148398;27;20510;-80
2022/10/20 08:23:06;;;;;;;16.67;11.05;;;8.40;99.90;;;;;;5118755;27;20038;-79
2022/10/20 08:25:32;;;;;;;13.00;10.77;;;8.40;99.90;;;;;;5128336;27;20158;-79
2022/10/20 08:27:57;;;;;;;18.38;11.57;;;8.50;99.90;;;;;;5128391;27;20399;-79
2022/10/20 08:30:23;;;;;;;14.98;10.38;;;8.50;99.90;;;;;;5115233;27;20126;-79
2022/10/20 08:32:53;;;;;;;13.55;10.55;;;8.60;99.90;;;;;;5127770;27;20049;-79
2022/10/20 08:35:22;;;;;;;13.98;9.95;;;8.70;99.90;;;;;;5150493;27;20083;-79
2022/10/20 08:37:48;;;;;;;13.80;10.10;;;9.00;99.90;;;;;;5146243;27;20042;-80
2022/10/20 08:40:24;;;;;;;12.98;10.70;;;8.80;99.90;;;;;;5111781;27;20455;-80
2022/10/20 08:42:50;;;;;;;14.40;10.75;;;8.80;99.90;;;;;;5132832;27;20038;-83
2022/10/20 08:45:24;;;;;;;16.42;11.20;;;8.90;99.90;;;;;;5134440;27;20038;-82
2022/10/20 08:47:56;;;;;;;12.45;10.60;;;8.90;99.90;;;;;;5136105;27;20047;-83
2022/10/20 08:50:26;;;;;;;16.60;10.32;;;9.00;99.90;;;;;;5137867;27;20041;-83
2022/10/20 08:52:55;;;;;;;13.45;10.65;;;9.10;99.90;;;;;;5131537;27;20034;-82
2022/10/20 08:55:27;;;;;;;17.15;10.48;;;9.10;99.90;;;;;;5123439;27;20389;-83
2022/10/20 08:57:57;;;;;;;12.95;9.70;;;9.10;99.90;;;;;;5136024;27;20412;-82
2022/10/20 09:00:24;;;;;;;13.70;10.52;;;9.20;99.90;;;;;;5147380;27;20031;-83
2022/10/20 09:02:50;;;;;;;13.35;9.88;;;9.30;99.90;;;;;;5114182;27;20064;-83
2022/10/20 09:05:21;;;;;;;14.90;10.07;;;9.30;99.90;;;;;;5119000;27;20037;-82
2022/10/20 09:07:48;;;;;;;14.00;10.80;;;9.30;99.90;;;;;;5128920;27;20131;-83
2022/10/20 09:10:34;;;;;;;15.65;10.07;;;9.30;99.90;;;;;;5119477;27;20125;-82
2022/10/20 09:13:01;;;;;;;15.05;10.55;;;9.40;99.90;;;;;;5154863;27;20070;-81
2022/10/20 09:15:27;;;;;;;19.00;10.95;;;9.50;99.90;;;;;;5135862;27;20053;-81
2022/10/20 09:18:03;;;;;;;15.15;9.90;;;9.70;99.90;;;;;;5134718;27;20122;-82
2022/10/20 09:20:47;;;;;;;18.77;10.55;;;9.60;99.90;;;;;;5136802;27;20042;-82
2022/10/20 09:23:16;;;;;;;15.07;10.73;;;9.70;99.90;;;;;;5128387;27;20087;-82
2022/10/20 09:25:44;;;;;;;14.57;10.18;;;10.30;99.90;;;;;;5154500;27;20043;-83
2022/10/20 09:28:28;;;;;;;18.17;10.40;;;9.90;99.90;;;;;;5118932;27;20035;-83
2022/10/20 09:30:55;;;;;;;13.13;10.38;;;10.00;99.90;;;;;;5152737;27;20509;-85
2022/10/20 09:33:24;;;;;;;19.23;9.27;;;10.10;99.90;;;;;;5136890;27;20042;-82
2022/10/20 09:35:51;;;;;;;12.05;9.98;;;10.10;99.90;;;;;;5136359;27;20411;-82
2022/10/20 09:38:25;;;;;;;13.93;9.77;;;10.80;99.90;;;;;;5119519;27;20031;-83
2022/10/20 09:41:19;;;;;;;11.05;9.18;;;10.30;99.90;;;;;;5136268;27;20042;-81
2022/10/20 09:44:00;;;;;;;15.68;10.95;;;10.50;99.90;;;;;;5126634;27;20111;-81
2022/10/20 09:46:33;;;;;;;12.50;9.48;;;10.40;99.90;;;;;;5132754;27;20075;-83
2022/10/20 09:48:59;;;;;;;10.98;9.80;;;10.50;99.90;;;;;;5153602;27;20456;-82
2022/10/20 09:51:27;;;;;;;11.90;9.80;;;10.60;99.90;;;;;;5151298;27;20047;-82
2022/10/20 09:53:58;;;;;;;12.90;10.18;;;10.60;99.90;;;;;;5135179;27;20050;-81
2022/10/20 09:56:37;;;;;;;15.18;9.43;;;10.70;99.90;;;;;;5124872;27;20091;-82
2022/10/20 09:59:08;;;;;;;11.45;8.77;;;10.70;99.90;;;;;;5145695;27;20034;-82
2022/10/20 10:02:01;;;;;;;13.43;10.13;;;10.80;99.90;;;;;;5147366;27;20086;-82
2022/10/20 10:04:34;;;;;;;12.45;9.15;;;10.90;99.90;;;;;;5135248;27;20031;-83
2022/10/20 10:07:01;;;;;;;13.85;9.48;;;11.00;99.90;;;;;;5149384;27;20031;-83
2022/10/20 10:09:33;;;;;;;13.02;9.35;;;11.10;99.90;;;;;;5134863;27;20051;-82
2022/10/20 10:12:14;;;;;;;11.57;8.05;;;11.20;99.90;;;;;;5149757;27;20156;-82
2022/10/20 10:15:01;;;;;;;12.85;8.25;;;11.20;99.90;;;;;;5133725;27;20065;-82
2022/10/20 10:17:37;;;;;;;9.35;8.10;;;11.30;99.90;;;;;;5145710;27;20041;-83
2022/10/20 10:20:34;;;;;;;10.30;8.00;;;11.30;99.90;;;;;;5134535;27;20039;-81
2022/10/20 10:23:20;;;;;;;15.48;8.50;;;11.30;99.90;;;;;;5117132;27;20042;-82
2022/10/20 10:25:47;;;;;;;15.30;9.82;;;11.40;99.90;;;;;;5144890;27;20115;-80
2022/10/20 10:28:56;;;;;;;12.40;8.45;;;11.50;99.90;;;;;;5116236;27;20045;-81
2022/10/20 10:31:24;;;;;;;14.63;8.75;;;11.60;99.90;;;;;;5075463;28;20455;-80
2022/10/20 10:33:54;;;;;;;11.63;8.77;;;11.70;99.90;;;;;;5124443;27;20394;-81
2022/10/20 10:36:34;;;;;;;9.63;7.85;;;11.70;99.90;;;;;;5133339;27;20042;-80
2022/10/20 10:39:03;;;;;;;12.43;9.10;;;11.70;99.90;;;;;;5149755;27;20042;-81
2022/10/20 10:42:06;;;;;;;11.15;8.27;;;11.80;99.90;;;;;;5149329;27;20045;-80
2022/10/20 10:44:42;;;;;;;11.77;9.00;;;11.80;99.90;;;;;;5129354;27;20102;-81
2022/10/20 10:47:33;;;;;;;10.57;8.20;;;11.90;99.90;;;;;;5151123;27;20030;-80
2022/10/20 10:50:26;;;;;;;11.43;9.27;;;11.90;99.90;;;;;;5134219;27;20078;-81
2022/10/20 10:53:36;;;;;;;13.50;9.10;;;11.50;99.90;;;;;;5125302;27;20039;-81
2022/10/20 10:56:08;;;;;;;11.85;9.38;;;12.00;99.90;;;;;;5130426;27;20038;-82
2022/10/20 10:59:02;;;;;;;14.75;9.20;;;11.90;99.90;;;;;;5144558;27;20035;-81
2022/10/20 11:01:46;;;;;;;11.15;9.30;;;11.90;99.90;;;;;;5123841;27;20046;-82
2022/10/20 11:04:34;;;;;;;14.15;9.63;;;12.00;99.90;;;;;;5136299;27;20382;-83
2022/10/20 11:07:05;;;;;;;12.02;9.07;;;12.00;99.90;;;;;;5130588;27;20491;-81
2022/10/20 11:09:44;;;;;;;12.45;9.15;;;12.00;99.90;;;;;;5129643;27;20086;-81
2022/10/20 11:12:39;;;;;;;11.98;8.90;;;12.00;99.90;;;;;;5129978;27;20035;-82
2022/10/20 11:15:37;;;;;;;10.80;8.63;;;12.00;99.90;;;;;;5135467;27;20031;-82
2022/10/20 11:18:21;;;;;;;12.93;8.85;;;12.00;99.90;;;;;;5156786;27;20058;-81
2022/10/20 11:21:21;;;;;;;12.25;8.15;;;12.00;99.90;;;;;;5133232;27;20066;-82
2022/10/20 11:24:01;;;;;;;12.30;8.75;;;12.00;99.90;;;;;;5124630;27;20031;-81
2022/10/20 11:26:35;;;;;;;10.05;8.93;;;12.10;99.90;;;;;;5130372;27;20058;-81
2022/10/20 11:29:05;;;;;;;12.18;9.57;;;12.10;99.90;;;;;;5133830;27;20039;-81
2022/10/20 11:31:38;;;;;;;14.95;8.98;;;12.10;99.90;;;;;;5133777;27;20034;-82
2022/10/20 11:34:09;;;;;;;14.77;9.23;;;12.10;99.90;;;;;;5129166;27;20035;-81
2022/10/20 11:36:41;;;;;;;13.07;9.65;;;12.10;99.90;;;;;;5132069;27;20034;-81
2022/10/20 11:39:24;;;;;;;11.57;8.88;;;12.10;99.90;;;;;;5132906;27;20031;-82
2022/10/20 11:41:55;;;;;;;12.50;9.30;;;12.10;99.90;;;;;;5126071;27;20054;-81
2022/10/20 11:44:29;;;;;;;14.60;9.60;;;12.10;99.90;;;;;;5150649;27;20030;-80
2022/10/20 11:47:07;;;;;;;12.23;9.63;;;12.00;99.90;;;;;;5149675;27;20031;-81
2022/10/20 11:49:33;;;;;;;15.73;9.27;;;12.10;99.90;;;;;;5145838;27;20070;-81
2022/10/20 11:52:20;;;;;;;11.90;9.65;;;12.00;99.90;;;;;;5125789;27;20062;-81
2022/10/20 11:55:06;;;;;;;14.52;9.90;;;12.10;99.90;;;;;;5133447;27;20039;-80
2022/10/20 11:58:03;;;;;;;13.25;10.38;;;12.10;99.90;;;;;;5143658;27;20110;-80
2022/10/20 12:01:15;;;;;;;18.45;10.05;;;12.10;99.90;;;;;;5131266;27;20047;-81
2022/10/20 12:03:44;;;;;;;12.48;10.52;;;12.10;99.90;;;;;;5126014;27;20099;-81
2022/10/20 12:06:25;;;;;;;17.27;10.05;;;12.10;99.90;;;;;;5152828;27;20035;-80
2022/10/20 12:09:32;;;;;;;15.80;10.23;;;12.10;99.90;;;;;;5135909;27;20055;-81
2022/10/20 12:12:14;;;;;;;14.52;10.95;;;12.10;99.90;;;;;;5133373;27;20047;-80
2022/10/20 12:14:59;;;;;;;16.70;9.80;;;12.10;99.90;;;;;;5142965;27;20121;-80
2022/10/20 12:17:37;;;;;;;12.75;10.07;;;12.10;99.90;;;;;;5151860;27;20743;-81
2022/10/20 12:20:21;;;;;;;14.05;10.65;;;12.10;99.90;;;;;;5130707;27;20038;-80
2022/10/20 12:22:52;;;;;;;13.05;10.60;;;12.10;99.90;;;;;;5134832;27;20039;-79
2022/10/20 12:25:24;;;;;;;16.25;11.43;;;12.10;99.90;;;;;;5131592;27;20031;-82
2022/10/20 12:28:21;;;;;;;16.95;11.30;;;12.10;99.90;;;;;;5130860;27;20042;-80
2022/10/20 12:30:58;;;;;;;15.48;11.70;;;12.10;99.90;;;;;;5130549;27;20035;-79
2022/10/20 12:33:59;;;;;;;14.27;11.40;;;12.10;99.90;;;;;;5126354;27;20098;-81
2022/10/20 12:36:36;;;;;;;16.20;10.93;;;12.10;99.90;;;;;;5091276;27;20038;-80
2022/10/20 12:39:11;;;;;;;19.10;11.13;;;12.10;99.90;;;;;;5134122;27;20134;-82
2022/10/20 12:41:43;;;;;;;18.15;12.15;;;12.00;99.90;;;;;;5147769;27;20062;-80
2022/10/20 12:44:17;;;;;;;17.40;12.25;;;12.00;99.90;;;;;;5123200;27;20099;-79
2022/10/20 12:47:26;;;;;;;17.30;12.20;;;12.00;99.90;;;;;;5131838;27;20062;-80
2022/10/20 12:50:17;;;;;;;17.65;12.20;;;12.00;99.90;;;;;;5126661;27;20038;-82
2022/10/20 12:52:44;;;;;;;18.92;12.82;;;12.00;99.90;;;;;;5132325;27;20487;-81
2022/10/20 12:55:22;;;;;;;15.13;11.65;;;12.00;99.90;;;;;;5130185;27;20122;-82
2022/10/20 12:57:48;;;;;;;18.17;13.20;;;12.00;99.90;;;;;;5133378;27;20035;-82
2022/10/20 13:00:22;;;;;;;21.02;13.30;;;12.00;99.90;;;;;;5114143;27;20073;-82
2022/10/20 13:02:48;;;;;;;19.52;12.60;;;12.00;99.90;;;;;;5128489;27;20088;-85
2022/10/20 13:05:14;;;;;;;16.65;12.93;;;12.00;99.90;;;;;;5129879;27;20039;-81